sensor_id;sensor_type;location;lat;lon;timestamp;temperature;humidity
4795;DHT22;2411;47.060;15.064;2022-10-17T00:00:56;8.80;27.20
4795;DHT22;2411;47.060;15.064;2022-10-17T00:03:23;8.80;36.80
4795;DHT22;2411;47.060;15.064;2022-10-17T00:05:51;8.70;56.40
4795;DHT22;2411;47.060;15.064;2022-10-17T00:08:18;8.70;80.70
4795;DHT22;2411;47.060;15.064;2022-10-17T00:10:57;8.90;90.50
4795;DHT22;2411;47.060;15.064;2022-10-17T00:13:25;8.90;95.10
4795;DHT22;2411;47.060;15.064;2022-10-17T00:15:53;8.80;99.90
4795;DHT22;2411;47.060;15.064;2022-10-17T00:18:20;8.80;99.90
4795;DHT22;2411;47.060;15.064;2022-10-17T00:20:48;8.70;99.90
4795;DHT22;2411;47.060;15.064;2022-10-17T00:23:15;8.80;99.90
4795;DHT22;2411;47.060;15.064;2022-10-17T00:25:43;9.00;99.90
4795;DHT22;2411;47.060;15.064;2022-10-17T00:28:11;9.00;99.90
4795;DHT22;2411;47.060;15.064;2022-10-17T00:30:39;9.00;99.90
4795;DHT22;2411;47.060;15.064;2022-10-17T00:33:06;9.00;99.90
4795;DHT22;2411;47.060;15.064;2022-10-17T00:35:33;9.00;99.90
4795;DHT22;2411;47.060;15.064;2022-10-17T00:38:00;8.90;99.90
4795;DHT22;2411;47.060;15.064;2022-10-17T00:40:28;8.80;99.90
4795;DHT22;2411;47.060;15.064;2022-10-17T00:42:55;8.70;99.90
4795;DHT22;2411;47.060;15.064;2022-10-17T00:45:24;8.70;99.90
4795;DHT22;2411;47.060;15.064;2022-10-17T00:48:00;8.80;99.90
4795;DHT22;2411;47.060;15.064;2022-10-17T00:50:30;8.80;99.90
4795;DHT22;2411;47.060;15.064;2022-10-17T00:53:00;8.80;99.90
4795;DHT22;2411;47.060;15.064;2022-10-17T00:55:31;8.80;1.00
4795;DHT22;2411;47.060;15.064;2022-10-17T00:58:01;8.80;1.00
4795;DHT22;2411;47.060;15.064;2022-10-17T01:00:29;8.80;12.30
4795;DHT22;2411;47.060;15.064;2022-10-17T01:02:56;8.70;99.90
4795;DHT22;2411;47.060;15.064;2022-10-17T01:05:24;8.70;99.90
4795;DHT22;2411;47.060;15.064;2022-10-17T01:07:52;8.80;99.90
4795;DHT22;2411;47.060;15.064;2022-10-17T01:10:19;8.70;1.00
4795;DHT22;2411;47.060;15.064;2022-10-17T01:13:23;8.80;1.00
4795;DHT22;2411;47.060;15.064;2022-10-17T01:16:15;8.80;1.00
4795;DHT22;2411;47.060;15.064;2022-10-17T01:19:17;8.70;99.90
4795;DHT22;2411;47.060;15.064;2022-10-17T01:27:25;8.60;99.90
4795;DHT22;2411;47.060;15.064;2022-10-17T01:30:24;8.60;99.90
4795;DHT22;2411;47.060;15.064;2022-10-17T01:33:11;8.60;99.90
4795;DHT22;2411;47.060;15.064;2022-10-17T01:35:57;8.70;99.90
4795;DHT22;2411;47.060;15.064;2022-10-17T01:39:00;8.60;99.90
4795;DHT22;2411;47.060;15.064;2022-10-17T01:41:34;8.80;99.90
4795;DHT22;2411;47.060;15.064;2022-10-17T01:46:52;8.60;99.90
4795;DHT22;2411;47.060;15.064;2022-10-17T01:49:24;8.50;99.90
4795;DHT22;2411;47.060;15.064;2022-10-17T01:52:02;8.50;99.90
4795;DHT22;2411;47.060;15.064;2022-10-17T01:54:36;8.50;1.00
4795;DHT22;2411;47.060;15.064;2022-10-17T01:57:13;8.50;1.00
4795;DHT22;2411;47.060;15.064;2022-10-17T01:59:45;8.60;1.00
4795;DHT22;2411;47.060;15.064;2022-10-17T02:02:14;8.60;1.00
4795;DHT22;2411;47.060;15.064;2022-10-17T02:04:42;8.50;1.00
4795;DHT22;2411;47.060;15.064;2022-10-17T02:07:12;8.40;1.00
4795;DHT22;2411;47.060;15.064;2022-10-17T02:09:39;8.40;1.00
4795;DHT22;2411;47.060;15.064;2022-10-17T02:20:23;8.40;1.00
4795;DHT22;2411;47.060;15.064;2022-10-17T02:26:04;8.40;1.00
4795;DHT22;2411;47.060;15.064;2022-10-17T02:31:25;8.50;1.00
4795;DHT22;2411;47.060;15.064;2022-10-17T02:33:58;8.50;1.00
4795;DHT22;2411;47.060;15.064;2022-10-17T02:36:35;8.50;1.00
4795;DHT22;2411;47.060;15.064;2022-10-17T02:39:06;8.40;1.00
4795;DHT22;2411;47.060;15.064;2022-10-17T02:41:36;8.40;1.00
4795;DHT22;2411;47.060;15.064;2022-10-17T02:44:04;8.40;1.00
4795;DHT22;2411;47.060;15.064;2022-10-17T02:46:32;8.80;1.00
4795;DHT22;2411;47.060;15.064;2022-10-17T02:49:16;8.70;1.00
4795;DHT22;2411;47.060;15.064;2022-10-17T02:51:55;8.60;1.00
4795;DHT22;2411;47.060;15.064;2022-10-17T02:54:40;8.50;1.00
4795;DHT22;2411;47.060;15.064;2022-10-17T02:57:23;8.40;1.00
4795;DHT22;2411;47.060;15.064;2022-10-17T02:59:54;8.30;1.00
4795;DHT22;2411;47.060;15.064;2022-10-17T03:02:23;8.20;1.00
4795;DHT22;2411;47.060;15.064;2022-10-17T03:04:51;8.10;1.00
4795;DHT22;2411;47.060;15.064;2022-10-17T03:07:18;7.90;1.00
4795;DHT22;2411;47.060;15.064;2022-10-17T03:09:45;7.90;1.00
4795;DHT22;2411;47.060;15.064;2022-10-17T03:12:13;7.80;1.00
4795;DHT22;2411;47.060;15.064;2022-10-17T03:14:40;7.80;1.00
4795;DHT22;2411;47.060;15.064;2022-10-17T03:17:07;7.80;1.00
4795;DHT22;2411;47.060;15.064;2022-10-17T03:19:34;7.90;1.00
4795;DHT22;2411;47.060;15.064;2022-10-17T03:22:01;7.90;1.00
4795;DHT22;2411;47.060;15.064;2022-10-17T03:24:28;8.00;1.00
4795;DHT22;2411;47.060;15.064;2022-10-17T03:26:55;8.00;1.00
4795;DHT22;2411;47.060;15.064;2022-10-17T03:29:23;8.00;1.00
4795;DHT22;2411;47.060;15.064;2022-10-17T03:31:50;8.10;1.00
4795;DHT22;2411;47.060;15.064;2022-10-17T03:34:17;8.10;1.00
4795;DHT22;2411;47.060;15.064;2022-10-17T03:36:45;8.10;1.00
4795;DHT22;2411;47.060;15.064;2022-10-17T03:39:12;8.10;1.00
4795;DHT22;2411;47.060;15.064;2022-10-17T03:41:39;8.20;1.00
4795;DHT22;2411;47.060;15.064;2022-10-17T03:44:07;8.40;1.00
4795;DHT22;2411;47.060;15.064;2022-10-17T03:46:34;8.40;1.00
4795;DHT22;2411;47.060;15.064;2022-10-17T03:49:01;8.30;1.00
4795;DHT22;2411;47.060;15.064;2022-10-17T03:51:28;8.30;1.00
4795;DHT22;2411;47.060;15.064;2022-10-17T03:53:55;8.20;1.00
4795;DHT22;2411;47.060;15.064;2022-10-17T03:56:24;8.20;1.00
4795;DHT22;2411;47.060;15.064;2022-10-17T03:58:52;8.10;1.00
4795;DHT22;2411;47.060;15.064;2022-10-17T04:01:20;8.10;1.00
4795;DHT22;2411;47.060;15.064;2022-10-17T04:03:49;8.10;1.00
4795;DHT22;2411;47.060;15.064;2022-10-17T04:06:17;8.10;1.00
4795;DHT22;2411;47.060;15.064;2022-10-17T04:08:44;8.00;1.00
4795;DHT22;2411;47.060;15.064;2022-10-17T04:11:15;7.90;1.00
4795;DHT22;2411;47.060;15.064;2022-10-17T04:13:43;7.90;1.00
4795;DHT22;2411;47.060;15.064;2022-10-17T04:16:15;8.20;1.00
4795;DHT22;2411;47.060;15.064;2022-10-17T04:18:42;8.10;1.00
4795;DHT22;2411;47.060;15.064;2022-10-17T04:21:11;8.00;1.00
4795;DHT22;2411;47.060;15.064;2022-10-17T04:23:38;7.90;1.00
4795;DHT22;2411;47.060;15.064;2022-10-17T04:26:06;7.90;1.00
4795;DHT22;2411;47.060;15.064;2022-10-17T04:28:34;7.80;1.00
4795;DHT22;2411;47.060;15.064;2022-10-17T04:31:08;7.90;1.00
4795;DHT22;2411;47.060;15.064;2022-10-17T04:33:35;7.90;1.00
4795;DHT22;2411;47.060;15.064;2022-10-17T04:36:05;7.90;1.00
4795;DHT22;2411;47.060;15.064;2022-10-17T04:38:33;8.00;1.00
4795;DHT22;2411;47.060;15.064;2022-10-17T04:41:01;7.90;1.00
4795;DHT22;2411;47.060;15.064;2022-10-17T04:43:30;7.90;1.00
4795;DHT22;2411;47.060;15.064;2022-10-17T04:45:58;7.80;1.00
4795;DHT22;2411;47.060;15.064;2022-10-17T04:48:27;7.80;1.00
4795;DHT22;2411;47.060;15.064;2022-10-17T04:50:56;7.70;1.00
4795;DHT22;2411;47.060;15.064;2022-10-17T04:53:25;7.80;1.00
4795;DHT22;2411;47.060;15.064;2022-10-17T04:55:52;7.80;1.00
4795;DHT22;2411;47.060;15.064;2022-10-17T04:58:20;7.70;1.00
4795;DHT22;2411;47.060;15.064;2022-10-17T05:00:47;7.80;1.00
4795;DHT22;2411;47.060;15.064;2022-10-17T05:03:15;7.70;1.00
4795;DHT22;2411;47.060;15.064;2022-10-17T05:05:42;7.80;1.00
4795;DHT22;2411;47.060;15.064;2022-10-17T05:08:10;7.70;1.00
4795;DHT22;2411;47.060;15.064;2022-10-17T05:10:39;7.70;1.00
4795;DHT22;2411;47.060;15.064;2022-10-17T05:13:07;7.80;1.00
4795;DHT22;2411;47.060;15.064;2022-10-17T05:15:35;7.90;1.00
4795;DHT22;2411;47.060;15.064;2022-10-17T05:18:04;7.90;1.00
4795;DHT22;2411;47.060;15.064;2022-10-17T05:20:31;7.80;1.00
4795;DHT22;2411;47.060;15.064;2022-10-17T05:22:59;7.70;1.00
4795;DHT22;2411;47.060;15.064;2022-10-17T05:25:26;7.80;1.00
4795;DHT22;2411;47.060;15.064;2022-10-17T05:27:53;7.70;1.00
4795;DHT22;2411;47.060;15.064;2022-10-17T05:30:20;7.70;1.00
4795;DHT22;2411;47.060;15.064;2022-10-17T05:32:51;7.80;1.00
4795;DHT22;2411;47.060;15.064;2022-10-17T05:35:18;7.90;1.00
4795;DHT22;2411;47.060;15.064;2022-10-17T05:37:46;8.10;1.00
4795;DHT22;2411;47.060;15.064;2022-10-17T05:40:13;8.00;1.00
4795;DHT22;2411;47.060;15.064;2022-10-17T05:42:45;8.00;1.00
4795;DHT22;2411;47.060;15.064;2022-10-17T05:45:14;8.10;1.00
4795;DHT22;2411;47.060;15.064;2022-10-17T05:47:41;8.10;1.00
4795;DHT22;2411;47.060;15.064;2022-10-17T05:50:09;8.10;1.00
4795;DHT22;2411;47.060;15.064;2022-10-17T05:52:36;8.10;1.00
4795;DHT22;2411;47.060;15.064;2022-10-17T05:55:04;8.10;1.00
4795;DHT22;2411;47.060;15.064;2022-10-17T05:57:31;8.10;1.00
4795;DHT22;2411;47.060;15.064;2022-10-17T05:59:58;8.10;1.00
4795;DHT22;2411;47.060;15.064;2022-10-17T06:02:26;8.10;1.00
4795;DHT22;2411;47.060;15.064;2022-10-17T06:04:54;8.10;1.00
4795;DHT22;2411;47.060;15.064;2022-10-17T06:07:22;8.10;1.00
4795;DHT22;2411;47.060;15.064;2022-10-17T06:09:49;8.10;1.00
4795;DHT22;2411;47.060;15.064;2022-10-17T06:12:16;8.10;1.00
4795;DHT22;2411;47.060;15.064;2022-10-17T06:14:43;8.20;1.00
4795;DHT22;2411;47.060;15.064;2022-10-17T06:17:11;8.30;1.00
4795;DHT22;2411;47.060;15.064;2022-10-17T06:19:42;8.30;1.00
4795;DHT22;2411;47.060;15.064;2022-10-17T06:22:11;8.50;1.00
4795;DHT22;2411;47.060;15.064;2022-10-17T06:24:38;8.60;1.00
4795;DHT22;2411;47.060;15.064;2022-10-17T06:27:05;8.80;1.00
4795;DHT22;2411;47.060;15.064;2022-10-17T06:29:38;8.90;1.00
4795;DHT22;2411;47.060;15.064;2022-10-17T06:32:06;9.00;1.00
4795;DHT22;2411;47.060;15.064;2022-10-17T06:34:38;9.10;1.00
4795;DHT22;2411;47.060;15.064;2022-10-17T06:37:05;9.10;1.00
4795;DHT22;2411;47.060;15.064;2022-10-17T06:39:34;9.20;1.00
4795;DHT22;2411;47.060;15.064;2022-10-17T06:42:02;9.30;1.00
4795;DHT22;2411;47.060;15.064;2022-10-17T06:44:30;9.30;1.00
4795;DHT22;2411;47.060;15.064;2022-10-17T06:46:58;9.40;1.00
4795;DHT22;2411;47.060;15.064;2022-10-17T06:49:26;9.40;1.00
4795;DHT22;2411;47.060;15.064;2022-10-17T06:51:54;9.50;1.00
4795;DHT22;2411;47.060;15.064;2022-10-17T06:54:21;9.60;1.00
4795;DHT22;2411;47.060;15.064;2022-10-17T06:56:48;9.60;1.00
4795;DHT22;2411;47.060;15.064;2022-10-17T06:59:16;9.70;1.00
4795;DHT22;2411;47.060;15.064;2022-10-17T07:01:43;9.80;1.00
4795;DHT22;2411;47.060;15.064;2022-10-17T07:04:13;9.90;1.00
4795;DHT22;2411;47.060;15.064;2022-10-17T07:06:40;10.00;1.00
4795;DHT22;2411;47.060;15.064;2022-10-17T07:09:07;10.10;1.00
4795;DHT22;2411;47.060;15.064;2022-10-17T07:11:35;10.20;1.00
4795;DHT22;2411;47.060;15.064;2022-10-17T07:14:03;10.30;1.00
4795;DHT22;2411;47.060;15.064;2022-10-17T07:16:30;10.40;2.40
4795;DHT22;2411;47.060;15.064;2022-10-17T07:18:57;10.50;3.60
4795;DHT22;2411;47.060;15.064;2022-10-17T07:21:24;10.60;4.30
4795;DHT22;2411;47.060;15.064;2022-10-17T07:23:51;10.60;11.50
4795;DHT22;2411;47.060;15.064;2022-10-17T07:26:19;10.70;13.30
4795;DHT22;2411;47.060;15.064;2022-10-17T07:28:49;10.80;15.90
4795;DHT22;2411;47.060;15.064;2022-10-17T07:31:18;10.90;19.70
4795;DHT22;2411;47.060;15.064;2022-10-17T07:33:46;10.90;21.00
4795;DHT22;2411;47.060;15.064;2022-10-17T07:36:13;10.90;23.40
4795;DHT22;2411;47.060;15.064;2022-10-17T07:38:40;11.10;26.00
4795;DHT22;2411;47.060;15.064;2022-10-17T07:41:10;11.20;29.30
4795;DHT22;2411;47.060;15.064;2022-10-17T07:43:37;11.30;34.40
4795;DHT22;2411;47.060;15.064;2022-10-17T07:46:05;11.40;40.30
4795;DHT22;2411;47.060;15.064;2022-10-17T07:48:32;11.50;48.70
4795;DHT22;2411;47.060;15.064;2022-10-17T07:51:04;11.60;56.90
4795;DHT22;2411;47.060;15.064;2022-10-17T07:53:35;11.70;68.40
4795;DHT22;2411;47.060;15.064;2022-10-17T07:56:07;11.90;83.30
4795;DHT22;2411;47.060;15.064;2022-10-17T07:58:35;12.00;94.90
4795;DHT22;2411;47.060;15.064;2022-10-17T08:01:05;12.10;99.90
4795;DHT22;2411;47.060;15.064;2022-10-17T08:03:38;12.20;99.90
4795;DHT22;2411;47.060;15.064;2022-10-17T08:06:05;12.30;99.90
4795;DHT22;2411;47.060;15.064;2022-10-17T08:08:32;12.40;1.00
4795;DHT22;2411;47.060;15.064;2022-10-17T08:11:17;12.40;99.90
4795;DHT22;2411;47.060;15.064;2022-10-17T08:13:44;12.50;1.00
4795;DHT22;2411;47.060;15.064;2022-10-17T08:16:12;12.60;1.00
4795;DHT22;2411;47.060;15.064;2022-10-17T08:18:40;12.80;1.00
4795;DHT22;2411;47.060;15.064;2022-10-17T08:21:08;12.90;30.20
4795;DHT22;2411;47.060;15.064;2022-10-17T08:23:36;13.00;1.00
4795;DHT22;2411;47.060;15.064;2022-10-17T08:26:06;13.20;1.00
4795;DHT22;2411;47.060;15.064;2022-10-17T08:28:38;13.40;1.00
4795;DHT22;2411;47.060;15.064;2022-10-17T08:31:11;13.60;99.90
4795;DHT22;2411;47.060;15.064;2022-10-17T08:33:39;13.80;99.90
4795;DHT22;2411;47.060;15.064;2022-10-17T08:36:07;14.00;99.90
4795;DHT22;2411;47.060;15.064;2022-10-17T08:38:35;14.10;99.90
4795;DHT22;2411;47.060;15.064;2022-10-17T08:43:55;14.40;99.90
4795;DHT22;2411;47.060;15.064;2022-10-17T08:46:31;14.50;99.90
4795;DHT22;2411;47.060;15.064;2022-10-17T08:49:01;14.70;99.90
4795;DHT22;2411;47.060;15.064;2022-10-17T08:51:36;14.80;99.90
4795;DHT22;2411;47.060;15.064;2022-10-17T08:54:44;14.90;99.90
4795;DHT22;2411;47.060;15.064;2022-10-17T08:57:13;15.00;99.90
4795;DHT22;2411;47.060;15.064;2022-10-17T08:59:42;15.20;97.40
4795;DHT22;2411;47.060;15.064;2022-10-17T09:10:51;15.80;88.50
4795;DHT22;2411;47.060;15.064;2022-10-17T09:13:33;15.90;82.20
4795;DHT22;2411;47.060;15.064;2022-10-17T09:16:27;16.10;77.50
4795;DHT22;2411;47.060;15.064;2022-10-17T09:19:09;16.30;75.30
4795;DHT22;2411;47.060;15.064;2022-10-17T09:24:42;16.60;71.20
4795;DHT22;2411;47.060;15.064;2022-10-17T09:27:21;16.70;71.00
4795;DHT22;2411;47.060;15.064;2022-10-17T09:29:51;16.90;69.10
4795;DHT22;2411;47.060;15.064;2022-10-17T09:32:23;16.90;66.90
4795;DHT22;2411;47.060;15.064;2022-10-17T09:34:52;17.00;61.60
4795;DHT22;2411;47.060;15.064;2022-10-17T09:37:24;17.10;60.50
4795;DHT22;2411;47.060;15.064;2022-10-17T09:39:55;17.20;58.20
4795;DHT22;2411;47.060;15.064;2022-10-17T09:42:25;17.30;57.60
4795;DHT22;2411;47.060;15.064;2022-10-17T09:48:06;17.50;57.00
4795;DHT22;2411;47.060;15.064;2022-10-17T09:50:31;17.60;57.00
4795;DHT22;2411;47.060;15.064;2022-10-17T09:53:09;17.70;57.30
4795;DHT22;2411;47.060;15.064;2022-10-17T09:55:41;17.90;56.40
4795;DHT22;2411;47.060;15.064;2022-10-17T09:58:10;17.90;55.70
4795;DHT22;2411;47.060;15.064;2022-10-17T10:00:42;18.00;55.10
4795;DHT22;2411;47.060;15.064;2022-10-17T10:03:22;18.00;53.50
4795;DHT22;2411;47.060;15.064;2022-10-17T10:06:16;18.10;52.60
4795;DHT22;2411;47.060;15.064;2022-10-17T10:08:52;18.30;52.00
4795;DHT22;2411;47.060;15.064;2022-10-17T10:14:18;18.50;51.70
4795;DHT22;2411;47.060;15.064;2022-10-17T10:16:47;18.60;51.70
4795;DHT22;2411;47.060;15.064;2022-10-17T10:19:36;18.70;53.00
4795;DHT22;2411;47.060;15.064;2022-10-17T10:22:07;18.70;52.10
4795;DHT22;2411;47.060;15.064;2022-10-17T10:24:40;18.70;52.90
4795;DHT22;2411;47.060;15.064;2022-10-17T10:27:14;18.80;51.40
4795;DHT22;2411;47.060;15.064;2022-10-17T10:29:49;18.80;50.70
4795;DHT22;2411;47.060;15.064;2022-10-17T10:32:28;18.70;47.80
4795;DHT22;2411;47.060;15.064;2022-10-17T10:35:30;18.80;49.40
4795;DHT22;2411;47.060;15.064;2022-10-17T10:37:58;18.80;48.50
4795;DHT22;2411;47.060;15.064;2022-10-17T10:40:33;18.90;49.80
4795;DHT22;2411;47.060;15.064;2022-10-17T10:43:04;19.00;48.20
4795;DHT22;2411;47.060;15.064;2022-10-17T10:48:21;19.20;47.40
4795;DHT22;2411;47.060;15.064;2022-10-17T10:50:56;19.30;48.40
4795;DHT22;2411;47.060;15.064;2022-10-17T10:53:31;19.30;48.20
4795;DHT22;2411;47.060;15.064;2022-10-17T10:58:33;19.50;48.90
4795;DHT22;2411;47.060;15.064;2022-10-17T11:06:44;19.60;47.30
4795;DHT22;2411;47.060;15.064;2022-10-17T11:09:29;19.70;48.00
4795;DHT22;2411;47.060;15.064;2022-10-17T11:12:10;19.70;47.80
4795;DHT22;2411;47.060;15.064;2022-10-17T11:14:46;19.80;48.40
4795;DHT22;2411;47.060;15.064;2022-10-17T11:17:29;19.70;48.70
4795;DHT22;2411;47.060;15.064;2022-10-17T11:22:30;19.80;48.20
4795;DHT22;2411;47.060;15.064;2022-10-17T11:27:38;19.90;47.50
4795;DHT22;2411;47.060;15.064;2022-10-17T11:30:05;19.90;47.80
4795;DHT22;2411;47.060;15.064;2022-10-17T11:32:45;20.00;47.00
4795;DHT22;2411;47.060;15.064;2022-10-17T11:35:24;19.90;43.70
4795;DHT22;2411;47.060;15.064;2022-10-17T11:38:01;19.80;45.00
4795;DHT22;2411;47.060;15.064;2022-10-17T11:40:35;19.80;44.60
4795;DHT22;2411;47.060;15.064;2022-10-17T11:45:45;20.00;42.90
4795;DHT22;2411;47.060;15.064;2022-10-17T11:48:21;20.10;43.40
4795;DHT22;2411;47.060;15.064;2022-10-17T11:51:07;20.10;44.40
4795;DHT22;2411;47.060;15.064;2022-10-17T11:54:03;20.10;41.40
4795;DHT22;2411;47.060;15.064;2022-10-17T11:56:48;20.20;40.20
4795;DHT22;2411;47.060;15.064;2022-10-17T11:59:30;20.20;42.10
4795;DHT22;2411;47.060;15.064;2022-10-17T12:02:13;20.30;40.20
4795;DHT22;2411;47.060;15.064;2022-10-17T12:15:57;20.30;39.00
4795;DHT22;2411;47.060;15.064;2022-10-17T12:19:10;20.20;39.90
4795;DHT22;2411;47.060;15.064;2022-10-17T12:24:31;20.20;38.90
4795;DHT22;2411;47.060;15.064;2022-10-17T12:29:48;20.20;35.80
4795;DHT22;2411;47.060;15.064;2022-10-17T12:32:16;20.30;38.80
4795;DHT22;2411;47.060;15.064;2022-10-17T12:34:53;20.30;38.30
4795;DHT22;2411;47.060;15.064;2022-10-17T12:46:02;20.30;39.50
4795;DHT22;2411;47.060;15.064;2022-10-17T12:56:39;20.40;34.80
4795;DHT22;2411;47.060;15.064;2022-10-17T12:59:27;20.40;37.20
4795;DHT22;2411;47.060;15.064;2022-10-17T13:02:00;20.40;36.10
4795;DHT22;2411;47.060;15.064;2022-10-17T13:04:29;20.40;36.60
4795;DHT22;2411;47.060;15.064;2022-10-17T13:06:57;20.40;36.30
4795;DHT22;2411;47.060;15.064;2022-10-17T13:09:32;20.40;36.90
4795;DHT22;2411;47.060;15.064;2022-10-17T13:12:03;20.40;54.90
4795;DHT22;2411;47.060;15.064;2022-10-17T13:14:32;20.40;37.10
4795;DHT22;2411;47.060;15.064;2022-10-17T13:17:05;20.50;37.20
4795;DHT22;2411;47.060;15.064;2022-10-17T13:19:42;20.40;35.90
4795;DHT22;2411;47.060;15.064;2022-10-17T13:22:19;20.40;35.60
4795;DHT22;2411;47.060;15.064;2022-10-17T13:24:47;20.30;34.60
4795;DHT22;2411;47.060;15.064;2022-10-17T13:27:27;20.30;35.20
4795;DHT22;2411;47.060;15.064;2022-10-17T13:29:57;20.30;32.90
4795;DHT22;2411;47.060;15.064;2022-10-17T13:32:33;20.30;33.90
4795;DHT22;2411;47.060;15.064;2022-10-17T13:35:10;20.30;34.90
4795;DHT22;2411;47.060;15.064;2022-10-17T13:37:40;20.20;34.00
4795;DHT22;2411;47.060;15.064;2022-10-17T13:40:18;20.20;34.40
4795;DHT22;2411;47.060;15.064;2022-10-17T13:43:15;20.20;32.80
4795;DHT22;2411;47.060;15.064;2022-10-17T13:45:55;20.20;34.90
4795;DHT22;2411;47.060;15.064;2022-10-17T13:48:36;20.10;33.90
4795;DHT22;2411;47.060;15.064;2022-10-17T13:51:05;20.00;34.30
4795;DHT22;2411;47.060;15.064;2022-10-17T13:53:38;20.00;34.00
4795;DHT22;2411;47.060;15.064;2022-10-17T13:56:23;20.00;33.60
4795;DHT22;2411;47.060;15.064;2022-10-17T13:59:00;19.90;31.60
4795;DHT22;2411;47.060;15.064;2022-10-17T14:01:29;19.80;30.60
4795;DHT22;2411;47.060;15.064;2022-10-17T14:03:57;19.90;34.50
4795;DHT22;2411;47.060;15.064;2022-10-17T14:06:45;19.90;34.10
4795;DHT22;2411;47.060;15.064;2022-10-17T14:09:26;19.80;34.50
4795;DHT22;2411;47.060;15.064;2022-10-17T14:12:11;19.80;31.40
4795;DHT22;2411;47.060;15.064;2022-10-17T14:14:40;19.70;34.80
4795;DHT22;2411;47.060;15.064;2022-10-17T14:17:33;19.60;33.00
4795;DHT22;2411;47.060;15.064;2022-10-17T14:20:02;19.60;32.40
4795;DHT22;2411;47.060;15.064;2022-10-17T14:22:50;19.50;32.10
4795;DHT22;2411;47.060;15.064;2022-10-17T14:25:39;19.50;31.80
4795;DHT22;2411;47.060;15.064;2022-10-17T14:30:40;19.40;29.50
4795;DHT22;2411;47.060;15.064;2022-10-17T14:33:28;19.30;31.10
4795;DHT22;2411;47.060;15.064;2022-10-17T14:35:57;19.30;30.80
4795;DHT22;2411;47.060;15.064;2022-10-17T14:38:27;19.20;30.30
4795;DHT22;2411;47.060;15.064;2022-10-17T14:40:59;19.10;30.00
4795;DHT22;2411;47.060;15.064;2022-10-17T14:43:56;19.10;29.50
4795;DHT22;2411;47.060;15.064;2022-10-17T14:46:24;19.10;29.80
4795;DHT22;2411;47.060;15.064;2022-10-17T14:48:54;19.10;30.00
4795;DHT22;2411;47.060;15.064;2022-10-17T14:51:22;19.00;31.20
4795;DHT22;2411;47.060;15.064;2022-10-17T14:54:26;19.00;30.00
4795;DHT22;2411;47.060;15.064;2022-10-17T14:56:56;19.00;28.10
4795;DHT22;2411;47.060;15.064;2022-10-17T14:59:23;18.90;29.80
4795;DHT22;2411;47.060;15.064;2022-10-17T15:02:12;18.90;30.30
4795;DHT22;2411;47.060;15.064;2022-10-17T15:04:39;18.80;29.70
4795;DHT22;2411;47.060;15.064;2022-10-17T15:07:18;18.70;30.00
4795;DHT22;2411;47.060;15.064;2022-10-17T15:09:50;18.60;29.90
4795;DHT22;2411;47.060;15.064;2022-10-17T15:12:20;18.50;28.50
4795;DHT22;2411;47.060;15.064;2022-10-17T15:14:48;18.50;28.90
4795;DHT22;2411;47.060;15.064;2022-10-17T15:17:18;18.40;29.10
4795;DHT22;2411;47.060;15.064;2022-10-17T15:19:47;18.30;28.60
4795;DHT22;2411;47.060;15.064;2022-10-17T15:22:14;18.30;28.80
4795;DHT22;2411;47.060;15.064;2022-10-17T15:24:42;18.10;31.30
4795;DHT22;2411;47.060;15.064;2022-10-17T15:27:22;18.00;32.30
4795;DHT22;2411;47.060;15.064;2022-10-17T15:29:50;17.80;32.10
4795;DHT22;2411;47.060;15.064;2022-10-17T15:32:18;17.70;33.40
4795;DHT22;2411;47.060;15.064;2022-10-17T15:34:45;17.60;32.80
4795;DHT22;2411;47.060;15.064;2022-10-17T15:37:20;17.60;30.70
4795;DHT22;2411;47.060;15.064;2022-10-17T15:39:51;17.40;31.10
4795;DHT22;2411;47.060;15.064;2022-10-17T15:42:21;17.20;31.30
4795;DHT22;2411;47.060;15.064;2022-10-17T15:44:48;17.10;31.00
4795;DHT22;2411;47.060;15.064;2022-10-17T15:47:24;16.90;31.20
4795;DHT22;2411;47.060;15.064;2022-10-17T15:49:54;16.80;32.90
4795;DHT22;2411;47.060;15.064;2022-10-17T15:52:22;16.60;37.40
4795;DHT22;2411;47.060;15.064;2022-10-17T15:54:49;16.40;35.50
4795;DHT22;2411;47.060;15.064;2022-10-17T15:57:32;16.30;38.50
4795;DHT22;2411;47.060;15.064;2022-10-17T16:00:00;16.20;37.20
4795;DHT22;2411;47.060;15.064;2022-10-17T16:02:27;16.10;39.00
4795;DHT22;2411;47.060;15.064;2022-10-17T16:04:54;16.00;39.80
4795;DHT22;2411;47.060;15.064;2022-10-17T16:07:22;15.90;41.30
4795;DHT22;2411;47.060;15.064;2022-10-17T16:09:49;15.70;43.40
4795;DHT22;2411;47.060;15.064;2022-10-17T16:12:19;15.60;45.60
4795;DHT22;2411;47.060;15.064;2022-10-17T16:14:48;15.50;48.30
4795;DHT22;2411;47.060;15.064;2022-10-17T16:17:16;15.50;48.50
4795;DHT22;2411;47.060;15.064;2022-10-17T16:19:44;15.50;48.70
4795;DHT22;2411;47.060;15.064;2022-10-17T16:22:28;15.40;48.20
4795;DHT22;2411;47.060;15.064;2022-10-17T16:24:59;15.20;50.20
4795;DHT22;2411;47.060;15.064;2022-10-17T16:27:34;15.10;52.50
4795;DHT22;2411;47.060;15.064;2022-10-17T16:30:04;15.00;53.90
4795;DHT22;2411;47.060;15.064;2022-10-17T16:32:33;14.90;58.90
4795;DHT22;2411;47.060;15.064;2022-10-17T16:35:00;14.70;62.30
4795;DHT22;2411;47.060;15.064;2022-10-17T16:37:27;14.60;66.90
4795;DHT22;2411;47.060;15.064;2022-10-17T16:39:54;14.50;76.70
4795;DHT22;2411;47.060;15.064;2022-10-17T16:42:22;14.40;76.10
4795;DHT22;2411;47.060;15.064;2022-10-17T16:44:49;14.30;81.70
4795;DHT22;2411;47.060;15.064;2022-10-17T16:47:17;14.20;88.20
4795;DHT22;2411;47.060;15.064;2022-10-17T16:49:44;14.30;90.20
4795;DHT22;2411;47.060;15.064;2022-10-17T16:52:12;14.20;88.80
4795;DHT22;2411;47.060;15.064;2022-10-17T16:54:39;14.10;89.50
4795;DHT22;2411;47.060;15.064;2022-10-17T16:57:06;14.10;90.40
4795;DHT22;2411;47.060;15.064;2022-10-17T16:59:34;14.00;91.20
4795;DHT22;2411;47.060;15.064;2022-10-17T17:02:01;14.00;91.20
4795;DHT22;2411;47.060;15.064;2022-10-17T17:04:29;13.90;93.50
4795;DHT22;2411;47.060;15.064;2022-10-17T17:06:56;13.80;96.20
4795;DHT22;2411;47.060;15.064;2022-10-17T17:09:23;13.70;98.20
4795;DHT22;2411;47.060;15.064;2022-10-17T17:11:50;13.60;99.90
4795;DHT22;2411;47.060;15.064;2022-10-17T17:14:17;13.50;99.90
4795;DHT22;2411;47.060;15.064;2022-10-17T17:16:44;13.40;99.90
4795;DHT22;2411;47.060;15.064;2022-10-17T17:19:13;13.40;99.90
4795;DHT22;2411;47.060;15.064;2022-10-17T17:21:43;13.30;99.90
4795;DHT22;2411;47.060;15.064;2022-10-17T17:24:17;13.20;99.90
4795;DHT22;2411;47.060;15.064;2022-10-17T17:26:51;13.30;99.90
4795;DHT22;2411;47.060;15.064;2022-10-17T17:29:20;13.20;99.90
4795;DHT22;2411;47.060;15.064;2022-10-17T17:31:47;13.10;99.90
4795;DHT22;2411;47.060;15.064;2022-10-17T17:34:15;13.10;99.90
4795;DHT22;2411;47.060;15.064;2022-10-17T17:36:44;13.10;99.90
4795;DHT22;2411;47.060;15.064;2022-10-17T17:39:13;13.00;99.90
4795;DHT22;2411;47.060;15.064;2022-10-17T17:41:42;13.00;99.90
4795;DHT22;2411;47.060;15.064;2022-10-17T17:44:11;12.90;99.90
4795;DHT22;2411;47.060;15.064;2022-10-17T17:46:43;12.90;99.90
4795;DHT22;2411;47.060;15.064;2022-10-17T17:49:10;12.90;99.90
4795;DHT22;2411;47.060;15.064;2022-10-17T17:51:38;12.90;99.90
4795;DHT22;2411;47.060;15.064;2022-10-17T17:54:07;12.90;99.90
4795;DHT22;2411;47.060;15.064;2022-10-17T17:56:37;12.90;99.90
4795;DHT22;2411;47.060;15.064;2022-10-17T17:59:05;12.90;99.90
4795;DHT22;2411;47.060;15.064;2022-10-17T18:01:33;12.90;99.90
4795;DHT22;2411;47.060;15.064;2022-10-17T18:04:06;12.90;99.90